sensor_id;sensor_type;location;lat;lon;timestamp;P1;durP1;ratioP1;P2;durP2;ratioP2
62149;SDS011;48134;53.586;10.610;2023-02-15T00:00:52;45.20;;;19.83;;
62149;SDS011;48134;53.586;10.610;2023-02-15T00:03:21;44.42;;;19.63;;
62149;SDS011;48134;53.586;10.610;2023-02-15T00:05:56;41.70;;;19.17;;
62149;SDS011;48134;53.586;10.610;2023-02-15T00:08:24;43.22;;;19.73;;
62149;SDS011;48134;53.586;10.610;2023-02-15T00:11:03;46.42;;;20.77;;
62149;SDS011;48134;53.586;10.610;2023-02-15T00:13:31;43.80;;;19.55;;
62149;SDS011;48134;53.586;10.610;2023-02-15T00:16:01;45.35;;;19.55;;
62149;SDS011;48134;53.586;10.610;2023-02-15T00:18:29;47.78;;;20.13;;
62149;SDS011;48134;53.586;10.610;2023-02-15T00:20:57;44.85;;;19.90;;
62149;SDS011;48134;53.586;10.610;2023-02-15T00:23:26;48.65;;;20.35;;
62149;SDS011;48134;53.586;10.610;2023-02-15T00:26:02;47.78;;;19.52;;
62149;SDS011;48134;53.586;10.610;2023-02-15T00:28:30;45.60;;;19.95;;
62149;SDS011;48134;53.586;10.610;2023-02-15T00:31:06;46.17;;;20.13;;
62149;SDS011;48134;53.586;10.610;2023-02-15T00:33:34;45.78;;;20.02;;
62149;SDS011;48134;53.586;10.610;2023-02-15T00:36:08;50.00;;;21.38;;
62149;SDS011;48134;53.586;10.610;2023-02-15T00:38:41;44.45;;;20.27;;
62149;SDS011;48134;53.586;10.610;2023-02-15T00:41:09;47.85;;;20.65;;
62149;SDS011;48134;53.586;10.610;2023-02-15T00:43:37;50.88;;;20.70;;
62149;SDS011;48134;53.586;10.610;2023-02-15T00:46:07;45.47;;;19.80;;
62149;SDS011;48134;53.586;10.610;2023-02-15T00:48:35;46.60;;;20.03;;
62149;SDS011;48134;53.586;10.610;2023-02-15T00:51:08;48.45;;;20.10;;
62149;SDS011;48134;53.586;10.610;2023-02-15T00:53:36;44.30;;;19.65;;
62149;SDS011;48134;53.586;10.610;2023-02-15T00:56:04;45.40;;;19.98;;
62149;SDS011;48134;53.586;10.610;2023-02-15T00:58:32;47.03;;;20.25;;
62149;SDS011;48134;53.586;10.610;2023-02-15T01:01:02;44.20;;;19.10;;
62149;SDS011;48134;53.586;10.610;2023-02-15T01:03:32;47.83;;;19.98;;
62149;SDS011;48134;53.586;10.610;2023-02-15T01:06:01;46.63;;;19.67;;
62149;SDS011;48134;53.586;10.610;2023-02-15T01:08:34;48.47;;;20.13;;
62149;SDS011;48134;53.586;10.610;2023-02-15T01:11:08;48.38;;;20.55;;
62149;SDS011;48134;53.586;10.610;2023-02-15T01:13:36;47.53;;;21.13;;
62149;SDS011;48134;53.586;10.610;2023-02-15T01:16:05;48.80;;;20.25;;
62149;SDS011;48134;53.586;10.610;2023-02-15T01:18:34;44.20;;;20.73;;
62149;SDS011;48134;53.586;10.610;2023-02-15T01:21:11;44.57;;;19.20;;
62149;SDS011;48134;53.586;10.610;2023-02-15T01:23:45;48.30;;;19.67;;
62149;SDS011;48134;53.586;10.610;2023-02-15T01:26:13;46.42;;;20.23;;
62149;SDS011;48134;53.586;10.610;2023-02-15T01:28:42;43.72;;;19.40;;
62149;SDS011;48134;53.586;10.610;2023-02-15T01:31:17;43.72;;;19.45;;
62149;SDS011;48134;53.586;10.610;2023-02-15T01:33:51;42.03;;;19.13;;
62149;SDS011;48134;53.586;10.610;2023-02-15T01:36:24;43.30;;;18.85;;
62149;SDS011;48134;53.586;10.610;2023-02-15T01:38:56;44.35;;;19.23;;
62149;SDS011;48134;53.586;10.610;2023-02-15T01:41:30;42.55;;;19.48;;
62149;SDS011;48134;53.586;10.610;2023-02-15T01:44:00;42.50;;;19.20;;
62149;SDS011;48134;53.586;10.610;2023-02-15T01:46:34;40.95;;;18.50;;
62149;SDS011;48134;53.586;10.610;2023-02-15T01:49:05;40.17;;;18.00;;
62149;SDS011;48134;53.586;10.610;2023-02-15T01:51:35;35.17;;;17.27;;
62149;SDS011;48134;53.586;10.610;2023-02-15T01:54:10;36.97;;;17.25;;
62149;SDS011;48134;53.586;10.610;2023-02-15T01:56:40;43.95;;;19.00;;
62149;SDS011;48134;53.586;10.610;2023-02-15T01:59:16;45.50;;;19.92;;
62149;SDS011;48134;53.586;10.610;2023-02-15T02:01:44;48.78;;;20.00;;
62149;SDS011;48134;53.586;10.610;2023-02-15T02:04:15;60.72;;;20.33;;
62149;SDS011;48134;53.586;10.610;2023-02-15T02:06:44;60.97;;;20.88;;
62149;SDS011;48134;53.586;10.610;2023-02-15T02:09:13;78.50;;;21.42;;
62149;SDS011;48134;53.586;10.610;2023-02-15T02:11:46;154.57;;;20.93;;
62149;SDS011;48134;53.586;10.610;2023-02-15T02:14:19;153.88;;;20.60;;
62149;SDS011;48134;53.586;10.610;2023-02-15T02:16:56;104.88;;;20.13;;
62149;SDS011;48134;53.586;10.610;2023-02-15T02:19:37;149.40;;;21.02;;
62149;SDS011;48134;53.586;10.610;2023-02-15T02:22:21;173.73;;;20.73;;
62149;SDS011;48134;53.586;10.610;2023-02-15T02:27:46;149.67;;;21.13;;
62149;SDS011;48134;53.586;10.610;2023-02-15T02:35:59;161.65;;;20.95;;
62149;SDS011;48134;53.586;10.610;2023-02-15T02:38:38;139.10;;;21.05;;
62149;SDS011;48134;53.586;10.610;2023-02-15T02:41:12;172.55;;;21.75;;
62149;SDS011;48134;53.586;10.610;2023-02-15T02:43:43;258.13;;;21.57;;
62149;SDS011;48134;53.586;10.610;2023-02-15T02:46:13;186.25;;;22.33;;
62149;SDS011;48134;53.586;10.610;2023-02-15T02:48:44;164.77;;;20.88;;
62149;SDS011;48134;53.586;10.610;2023-02-15T02:51:14;264.83;;;22.23;;
62149;SDS011;48134;53.586;10.610;2023-02-15T02:53:53;152.60;;;20.25;;
62149;SDS011;48134;53.586;10.610;2023-02-15T02:56:24;167.63;;;21.60;;
62149;SDS011;48134;53.586;10.610;2023-02-15T02:58:55;169.90;;;22.00;;
62149;SDS011;48134;53.586;10.610;2023-02-15T03:01:24;194.40;;;21.60;;
62149;SDS011;48134;53.586;10.610;2023-02-15T03:03:55;294.98;;;21.95;;
62149;SDS011;48134;53.586;10.610;2023-02-15T03:06:28;321.02;;;22.23;;
62149;SDS011;48134;53.586;10.610;2023-02-15T03:08:57;179.88;;;20.45;;
62149;SDS011;48134;53.586;10.610;2023-02-15T03:11:28;319.08;;;20.83;;
62149;SDS011;48134;53.586;10.610;2023-02-15T03:14:02;172.20;;;19.65;;
62149;SDS011;48134;53.586;10.610;2023-02-15T03:16:30;291.37;;;20.67;;
62149;SDS011;48134;53.586;10.610;2023-02-15T03:19:06;235.75;;;19.63;;
62149;SDS011;48134;53.586;10.610;2023-02-15T03:21:45;212.93;;;19.95;;
62149;SDS011;48134;53.586;10.610;2023-02-15T03:24:16;244.47;;;18.83;;
62149;SDS011;48134;53.586;10.610;2023-02-15T03:26:51;121.72;;;18.42;;
62149;SDS011;48134;53.586;10.610;2023-02-15T03:29:26;332.35;;;20.52;;
62149;SDS011;48134;53.586;10.610;2023-02-15T03:31:56;252.73;;;20.08;;
62149;SDS011;48134;53.586;10.610;2023-02-15T03:34:26;232.05;;;18.85;;
62149;SDS011;48134;53.586;10.610;2023-02-15T03:36:58;213.30;;;19.27;;
62149;SDS011;48134;53.586;10.610;2023-02-15T03:39:30;238.73;;;19.33;;
62149;SDS011;48134;53.586;10.610;2023-02-15T03:42:05;197.80;;;18.55;;
62149;SDS011;48134;53.586;10.610;2023-02-15T03:44:42;246.55;;;19.08;;
62149;SDS011;48134;53.586;10.610;2023-02-15T03:47:20;188.15;;;18.38;;
62149;SDS011;48134;53.586;10.610;2023-02-15T03:49:51;245.50;;;18.73;;
62149;SDS011;48134;53.586;10.610;2023-02-15T03:52:27;237.40;;;20.03;;
62149;SDS011;48134;53.586;10.610;2023-02-15T03:54:54;221.10;;;19.98;;
62149;SDS011;48134;53.586;10.610;2023-02-15T03:57:28;224.95;;;19.73;;
62149;SDS011;48134;53.586;10.610;2023-02-15T04:00:14;248.13;;;19.13;;
62149;SDS011;48134;53.586;10.610;2023-02-15T04:03:09;254.13;;;19.75;;
62149;SDS011;48134;53.586;10.610;2023-02-15T04:05:38;275.42;;;20.77;;
62149;SDS011;48134;53.586;10.610;2023-02-15T04:08:07;186.37;;;19.93;;
62149;SDS011;48134;53.586;10.610;2023-02-15T04:10:35;203.63;;;19.85;;
62149;SDS011;48134;53.586;10.610;2023-02-15T04:13:29;230.18;;;20.75;;
62149;SDS011;48134;53.586;10.610;2023-02-15T04:15:58;158.05;;;20.25;;
62149;SDS011;48134;53.586;10.610;2023-02-15T04:18:31;251.48;;;20.63;;
62149;SDS011;48134;53.586;10.610;2023-02-15T04:21:17;248.38;;;21.02;;
62149;SDS011;48134;53.586;10.610;2023-02-15T04:24:09;256.05;;;21.27;;
62149;SDS011;48134;53.586;10.610;2023-02-15T04:27:00;230.13;;;19.73;;
62149;SDS011;48134;53.586;10.610;2023-02-15T04:29:28;301.00;;;22.53;;
62149;SDS011;48134;53.586;10.610;2023-02-15T04:31:57;316.10;;;23.10;;
62149;SDS011;48134;53.586;10.610;2023-02-15T04:34:30;239.20;;;21.77;;
62149;SDS011;48134;53.586;10.610;2023-02-15T04:36:58;323.45;;;21.70;;
62149;SDS011;48134;53.586;10.610;2023-02-15T04:39:27;206.65;;;20.10;;
62149;SDS011;48134;53.586;10.610;2023-02-15T04:42:00;216.35;;;20.85;;
62149;SDS011;48134;53.586;10.610;2023-02-15T04:44:28;273.05;;;21.05;;
62149;SDS011;48134;53.586;10.610;2023-02-15T04:47:01;266.55;;;21.63;;
62149;SDS011;48134;53.586;10.610;2023-02-15T04:49:28;199.25;;;23.13;;
62149;SDS011;48134;53.586;10.610;2023-02-15T04:52:01;264.02;;;21.75;;
62149;SDS011;48134;53.586;10.610;2023-02-15T04:54:30;233.75;;;21.63;;
62149;SDS011;48134;53.586;10.610;2023-02-15T04:57:03;241.90;;;21.13;;
62149;SDS011;48134;53.586;10.610;2023-02-15T04:59:32;297.20;;;21.75;;
62149;SDS011;48134;53.586;10.610;2023-02-15T05:02:05;284.52;;;22.05;;
62149;SDS011;48134;53.586;10.610;2023-02-15T05:04:33;244.15;;;20.75;;
62149;SDS011;48134;53.586;10.610;2023-02-15T05:07:00;284.25;;;23.45;;
62149;SDS011;48134;53.586;10.610;2023-02-15T05:09:34;304.70;;;20.88;;
62149;SDS011;48134;53.586;10.610;2023-02-15T05:12:03;192.00;;;21.25;;
62149;SDS011;48134;53.586;10.610;2023-02-15T05:14:36;296.83;;;22.25;;
62149;SDS011;48134;53.586;10.610;2023-02-15T05:17:03;180.90;;;20.58;;
62149;SDS011;48134;53.586;10.610;2023-02-15T05:19:37;258.52;;;20.60;;
62149;SDS011;48134;53.586;10.610;2023-02-15T05:22:04;206.95;;;20.40;;
62149;SDS011;48134;53.586;10.610;2023-02-15T05:24:32;173.52;;;20.98;;
62149;SDS011;48134;53.586;10.610;2023-02-15T05:27:24;247.88;;;21.00;;
62149;SDS011;48134;53.586;10.610;2023-02-15T05:30:14;195.90;;;20.07;;
62149;SDS011;48134;53.586;10.610;2023-02-15T05:32:42;280.65;;;21.58;;
62149;SDS011;48134;53.586;10.610;2023-02-15T05:35:11;230.93;;;22.77;;
62149;SDS011;48134;53.586;10.610;2023-02-15T05:37:40;149.45;;;23.98;;
62149;SDS011;48134;53.586;10.610;2023-02-15T05:40:12;252.32;;;25.02;;
62149;SDS011;48134;53.586;10.610;2023-02-15T05:42:47;226.60;;;20.75;;
62149;SDS011;48134;53.586;10.610;2023-02-15T05:45:19;231.50;;;21.75;;
62149;SDS011;48134;53.586;10.610;2023-02-15T05:47:47;228.50;;;21.05;;
62149;SDS011;48134;53.586;10.610;2023-02-15T05:50:15;204.45;;;21.15;;
62149;SDS011;48134;53.586;10.610;2023-02-15T05:52:48;192.90;;;19.35;;
62149;SDS011;48134;53.586;10.610;2023-02-15T05:55:16;193.95;;;20.55;;
62149;SDS011;48134;53.586;10.610;2023-02-15T05:57:44;357.23;;;21.92;;
62149;SDS011;48134;53.586;10.610;2023-02-15T06:00:18;245.55;;;21.30;;
62149;SDS011;48134;53.586;10.610;2023-02-15T06:02:46;294.58;;;21.20;;
62149;SDS011;48134;53.586;10.610;2023-02-15T06:05:19;207.45;;;19.48;;
62149;SDS011;48134;53.586;10.610;2023-02-15T06:07:52;168.82;;;19.40;;
62149;SDS011;48134;53.586;10.610;2023-02-15T06:10:25;230.35;;;20.98;;
62149;SDS011;48134;53.586;10.610;2023-02-15T06:12:52;210.80;;;21.48;;
62149;SDS011;48134;53.586;10.610;2023-02-15T06:15:21;218.57;;;21.05;;
62149;SDS011;48134;53.586;10.610;2023-02-15T06:17:49;212.23;;;21.23;;
62149;SDS011;48134;53.586;10.610;2023-02-15T06:20:22;175.65;;;20.35;;
62149;SDS011;48134;53.586;10.610;2023-02-15T06:22:50;198.05;;;20.67;;
62149;SDS011;48134;53.586;10.610;2023-02-15T06:25:23;284.60;;;21.95;;
62149;SDS011;48134;53.586;10.610;2023-02-15T06:27:51;252.52;;;21.50;;
62149;SDS011;48134;53.586;10.610;2023-02-15T06:30:19;175.77;;;20.20;;
62149;SDS011;48134;53.586;10.610;2023-02-15T06:32:48;191.00;;;20.40;;
62149;SDS011;48134;53.586;10.610;2023-02-15T06:35:16;241.68;;;21.90;;
62149;SDS011;48134;53.586;10.610;2023-02-15T06:37:45;206.50;;;20.40;;
62149;SDS011;48134;53.586;10.610;2023-02-15T06:40:13;168.07;;;20.33;;
62149;SDS011;48134;53.586;10.610;2023-02-15T06:42:41;165.10;;;19.40;;
62149;SDS011;48134;53.586;10.610;2023-02-15T06:45:09;291.30;;;21.48;;
62149;SDS011;48134;53.586;10.610;2023-02-15T06:47:37;319.58;;;21.08;;
62149;SDS011;48134;53.586;10.610;2023-02-15T06:50:10;225.15;;;20.88;;
62149;SDS011;48134;53.586;10.610;2023-02-15T06:52:43;329.50;;;21.77;;
62149;SDS011;48134;53.586;10.610;2023-02-15T06:55:17;225.65;;;20.70;;
62149;SDS011;48134;53.586;10.610;2023-02-15T06:57:45;211.50;;;20.27;;
62149;SDS011;48134;53.586;10.610;2023-02-15T07:00:18;256.10;;;21.23;;
62149;SDS011;48134;53.586;10.610;2023-02-15T07:02:53;252.15;;;21.40;;
62149;SDS011;48134;53.586;10.610;2023-02-15T07:05:28;131.63;;;19.05;;
62149;SDS011;48134;53.586;10.610;2023-02-15T07:08:02;223.23;;;19.65;;
62149;SDS011;48134;53.586;10.610;2023-02-15T07:10:30;200.32;;;20.20;;
62149;SDS011;48134;53.586;10.610;2023-02-15T07:12:58;178.05;;;21.98;;
62149;SDS011;48134;53.586;10.610;2023-02-15T07:15:24;174.30;;;20.50;;
62149;SDS011;48134;53.586;10.610;2023-02-15T07:17:57;209.93;;;20.83;;
62149;SDS011;48134;53.586;10.610;2023-02-15T07:20:25;217.20;;;19.13;;
62149;SDS011;48134;53.586;10.610;2023-02-15T07:22:54;271.10;;;20.40;;
62149;SDS011;48134;53.586;10.610;2023-02-15T07:25:27;186.77;;;19.63;;
62149;SDS011;48134;53.586;10.610;2023-02-15T07:27:56;144.25;;;19.55;;
62149;SDS011;48134;53.586;10.610;2023-02-15T07:30:29;159.23;;;19.80;;
62149;SDS011;48134;53.586;10.610;2023-02-15T07:32:57;196.63;;;19.97;;
62149;SDS011;48134;53.586;10.610;2023-02-15T07:35:48;203.82;;;20.30;;
62149;SDS011;48134;53.586;10.610;2023-02-15T07:38:23;183.68;;;20.30;;
62149;SDS011;48134;53.586;10.610;2023-02-15T07:40:57;301.75;;;20.88;;
62149;SDS011;48134;53.586;10.610;2023-02-15T07:43:32;222.77;;;20.90;;
62149;SDS011;48134;53.586;10.610;2023-02-15T07:46:07;253.55;;;20.85;;
62149;SDS011;48134;53.586;10.610;2023-02-15T07:48:40;191.85;;;20.10;;
62149;SDS011;48134;53.586;10.610;2023-02-15T07:51:09;260.20;;;19.90;;
62149;SDS011;48134;53.586;10.610;2023-02-15T07:53:38;167.85;;;19.73;;
62149;SDS011;48134;53.586;10.610;2023-02-15T07:56:14;173.57;;;20.52;;
62149;SDS011;48134;53.586;10.610;2023-02-15T07:58:42;219.10;;;20.58;;
62149;SDS011;48134;53.586;10.610;2023-02-15T08:01:22;199.33;;;19.37;;
62149;SDS011;48134;53.586;10.610;2023-02-15T08:03:56;187.55;;;20.55;;
62149;SDS011;48134;53.586;10.610;2023-02-15T08:06:25;319.80;;;21.27;;
62149;SDS011;48134;53.586;10.610;2023-02-15T08:08:59;217.38;;;19.83;;
62149;SDS011;48134;53.586;10.610;2023-02-15T08:11:28;214.15;;;21.27;;
62149;SDS011;48134;53.586;10.610;2023-02-15T08:13:59;276.77;;;20.80;;
62149;SDS011;48134;53.586;10.610;2023-02-15T08:16:30;280.50;;;21.30;;
62149;SDS011;48134;53.586;10.610;2023-02-15T08:19:04;243.70;;;20.60;;
62149;SDS011;48134;53.586;10.610;2023-02-15T08:21:32;191.00;;;19.75;;
62149;SDS011;48134;53.586;10.610;2023-02-15T08:24:08;282.93;;;20.40;;
62149;SDS011;48134;53.586;10.610;2023-02-15T08:26:41;310.10;;;20.70;;
62149;SDS011;48134;53.586;10.610;2023-02-15T08:29:11;215.32;;;20.15;;
62149;SDS011;48134;53.586;10.610;2023-02-15T08:31:39;418.25;;;21.67;;
62149;SDS011;48134;53.586;10.610;2023-02-15T08:34:07;228.95;;;19.20;;
62149;SDS011;48134;53.586;10.610;2023-02-15T08:36:35;304.20;;;20.73;;
62149;SDS011;48134;53.586;10.610;2023-02-15T08:39:04;207.77;;;18.15;;
62149;SDS011;48134;53.586;10.610;2023-02-15T08:41:39;225.35;;;18.00;;
62149;SDS011;48134;53.586;10.610;2023-02-15T08:44:12;169.75;;;18.48;;
62149;SDS011;48134;53.586;10.610;2023-02-15T08:46:47;177.48;;;17.90;;
62149;SDS011;48134;53.586;10.610;2023-02-15T08:49:20;152.55;;;18.73;;
62149;SDS011;48134;53.586;10.610;2023-02-15T08:51:48;181.60;;;18.92;;
62149;SDS011;48134;53.586;10.610;2023-02-15T08:54:17;189.13;;;20.58;;
62149;SDS011;48134;53.586;10.610;2023-02-15T08:56:47;149.87;;;17.60;;
62149;SDS011;48134;53.586;10.610;2023-02-15T08:59:15;283.93;;;18.60;;
62149;SDS011;48134;53.586;10.610;2023-02-15T09:01:43;220.63;;;17.90;;
62149;SDS011;48134;53.586;10.610;2023-02-15T09:04:17;135.38;;;17.05;;
62149;SDS011;48134;53.586;10.610;2023-02-15T09:06:45;148.48;;;17.20;;
62149;SDS011;48134;53.586;10.610;2023-02-15T09:09:13;116.82;;;16.45;;
62149;SDS011;48134;53.586;10.610;2023-02-15T09:11:48;159.52;;;16.77;;
62149;SDS011;48134;53.586;10.610;2023-02-15T09:14:17;232.55;;;16.88;;
62149;SDS011;48134;53.586;10.610;2023-02-15T09:16:51;151.15;;;16.17;;
62149;SDS011;48134;53.586;10.610;2023-02-15T09:19:20;181.27;;;17.33;;
62149;SDS011;48134;53.586;10.610;2023-02-15T09:21:48;192.50;;;17.70;;
62149;SDS011;48134;53.586;10.610;2023-02-15T09:24:16;155.95;;;17.55;;
62149;SDS011;48134;53.586;10.610;2023-02-15T09:26:50;317.83;;;18.63;;
62149;SDS011;48134;53.586;10.610;2023-02-15T09:29:23;232.45;;;16.90;;
62149;SDS011;48134;53.586;10.610;2023-02-15T09:31:56;219.98;;;17.75;;
62149;SDS011;48134;53.586;10.610;2023-02-15T09:34:24;232.80;;;18.30;;
62149;SDS011;48134;53.586;10.610;2023-02-15T09:36:57;194.60;;;18.27;;
62149;SDS011;48134;53.586;10.610;2023-02-15T09:39:25;128.95;;;17.98;;
62149;SDS011;48134;53.586;10.610;2023-02-15T09:47:55;208.35;;;20.33;;
62149;SDS011;48134;53.586;10.610;2023-02-15T09:50:25;246.05;;;20.35;;
62149;SDS011;48134;53.586;10.610;2023-02-15T09:53:05;107.72;;;19.05;;
62149;SDS011;48134;53.586;10.610;2023-02-15T09:55:44;145.32;;;18.20;;
62149;SDS011;48134;53.586;10.610;2023-02-15T09:58:14;199.45;;;19.48;;
62149;SDS011;48134;53.586;10.610;2023-02-15T10:00:54;199.20;;;18.63;;
62149;SDS011;48134;53.586;10.610;2023-02-15T10:03:33;194.60;;;18.50;;
62149;SDS011;48134;53.586;10.610;2023-02-15T10:06:22;175.45;;;18.00;;
62149;SDS011;48134;53.586;10.610;2023-02-15T10:09:05;217.10;;;17.67;;
62149;SDS011;48134;53.586;10.610;2023-02-15T10:11:44;267.75;;;17.65;;
62149;SDS011;48134;53.586;10.610;2023-02-15T10:14:25;462.40;;;20.52;;
62149;SDS011;48134;53.586;10.610;2023-02-15T10:17:12;173.07;;;18.27;;
62149;SDS011;48134;53.586;10.610;2023-02-15T10:19:53;157.05;;;18.02;;
62149;SDS011;48134;53.586;10.610;2023-02-15T10:22:29;253.32;;;18.55;;
62149;SDS011;48134;53.586;10.610;2023-02-15T10:25:07;223.93;;;19.50;;
62149;SDS011;48134;53.586;10.610;2023-02-15T10:27:49;349.15;;;20.52;;
62149;SDS011;48134;53.586;10.610;2023-02-15T10:30:17;93.32;;;18.52;;
62149;SDS011;48134;53.586;10.610;2023-02-15T10:33:04;121.97;;;19.83;;
62149;SDS011;48134;53.586;10.610;2023-02-15T10:35:40;186.63;;;18.55;;
62149;SDS011;48134;53.586;10.610;2023-02-15T10:38:14;214.98;;;23.15;;
62149;SDS011;48134;53.586;10.610;2023-02-15T10:40:46;159.45;;;20.48;;
62149;SDS011;48134;53.586;10.610;2023-02-15T10:43:23;132.07;;;20.58;;
62149;SDS011;48134;53.586;10.610;2023-02-15T10:45:58;199.68;;;17.98;;
62149;SDS011;48134;53.586;10.610;2023-02-15T10:48:41;166.45;;;28.20;;
62149;SDS011;48134;53.586;10.610;2023-02-15T10:51:15;109.97;;;16.65;;
62149;SDS011;48134;53.586;10.610;2023-02-15T10:53:57;193.15;;;17.73;;
62149;SDS011;48134;53.586;10.610;2023-02-15T10:56:33;152.53;;;17.50;;
62149;SDS011;48134;53.586;10.610;2023-02-15T10:59:16;122.82;;;19.50;;
62149;SDS011;48134;53.586;10.610;2023-02-15T11:01:47;106.90;;;18.63;;
62149;SDS011;48134;53.586;10.610;2023-02-15T11:04:37;66.60;;;18.25;;
62149;SDS011;48134;53.586;10.610;2023-02-15T11:07:11;51.95;;;17.30;;
62149;SDS011;48134;53.586;10.610;2023-02-15T11:09:47;158.88;;;20.58;;
62149;SDS011;48134;53.586;10.610;2023-02-15T11:12:16;86.97;;;17.40;;
62149;SDS011;48134;53.586;10.610;2023-02-15T11:14:45;119.43;;;18.08;;
62149;SDS011;48134;53.586;10.610;2023-02-15T11:17:16;190.88;;;19.67;;
62149;SDS011;48134;53.586;10.610;2023-02-15T11:19:53;108.55;;;18.08;;
62149;SDS011;48134;53.586;10.610;2023-02-15T11:22:28;106.70;;;20.33;;
62149;SDS011;48134;53.586;10.610;2023-02-15T11:25:04;101.32;;;18.35;;
62149;SDS011;48134;53.586;10.610;2023-02-15T11:27:41;85.07;;;19.13;;
62149;SDS011;48134;53.586;10.610;2023-02-15T11:30:15;89.43;;;18.67;;
62149;SDS011;48134;53.586;10.610;2023-02-15T11:32:50;72.32;;;17.55;;
62149;SDS011;48134;53.586;10.610;2023-02-15T11:35:26;97.95;;;18.08;;
62149;SDS011;48134;53.586;10.610;2023-02-15T11:38:03;98.28;;;20.58;;
62149;SDS011;48134;53.586;10.610;2023-02-15T11:40:40;75.80;;;17.48;;
62149;SDS011;48134;53.586;10.610;2023-02-15T11:43:11;50.67;;;17.17;;
62149;SDS011;48134;53.586;10.610;2023-02-15T11:45:45;83.63;;;17.55;;
62149;SDS011;48134;53.586;10.610;2023-02-15T11:48:18;49.67;;;16.55;;
62149;SDS011;48134;53.586;10.610;2023-02-15T11:50:51;50.45;;;17.70;;
62149;SDS011;48134;53.586;10.610;2023-02-15T11:53:25;32.38;;;16.10;;
62149;SDS011;48134;53.586;10.610;2023-02-15T11:56:00;40.50;;;15.93;;
62149;SDS011;48134;53.586;10.610;2023-02-15T11:58:35;41.83;;;16.52;;
62149;SDS011;48134;53.586;10.610;2023-02-15T12:01:11;35.22;;;15.43;;
62149;SDS011;48134;53.586;10.610;2023-02-15T12:03:43;39.15;;;17.35;;
62149;SDS011;48134;53.586;10.610;2023-02-15T12:06:21;32.30;;;17.40;;
62149;SDS011;48134;53.586;10.610;2023-02-15T12:08:59;35.72;;;16.65;;
62149;SDS011;48134;53.586;10.610;2023-02-15T12:11:30;38.10;;;16.93;;
62149;SDS011;48134;53.586;10.610;2023-02-15T12:14:01;54.55;;;17.42;;
62149;SDS011;48134;53.586;10.610;2023-02-15T12:16:39;39.78;;;18.30;;
62149;SDS011;48134;53.586;10.610;2023-02-15T12:19:18;40.70;;;18.40;;
62149;SDS011;48134;53.586;10.610;2023-02-15T12:21:49;34.15;;;17.63;;
62149;SDS011;48134;53.586;10.610;2023-02-15T12:24:25;33.25;;;17.77;;
62149;SDS011;48134;53.586;10.610;2023-02-15T12:26:59;35.92;;;17.27;;
62149;SDS011;48134;53.586;10.610;2023-02-15T12:29:35;77.03;;;17.43;;
62149;SDS011;48134;53.586;10.610;2023-02-15T12:32:03;42.67;;;16.77;;
62149;SDS011;48134;53.586;10.610;2023-02-15T12:34:36;33.77;;;16.80;;
62149;SDS011;48134;53.586;10.610;2023-02-15T12:37:14;45.22;;;17.98;;
62149;SDS011;48134;53.586;10.610;2023-02-15T12:39:53;32.38;;;18.45;;
62149;SDS011;48134;53.586;10.610;2023-02-15T12:42:21;31.48;;;18.20;;
62149;SDS011;48134;53.586;10.610;2023-02-15T12:44:54;31.48;;;17.77;;
62149;SDS011;48134;53.586;10.610;2023-02-15T12:47:22;67.82;;;20.65;;
62149;SDS011;48134;53.586;10.610;2023-02-15T12:50:10;35.47;;;17.95;;
62149;SDS011;48134;53.586;10.610;2023-02-15T12:52:44;36.25;;;18.70;;
62149;SDS011;48134;53.586;10.610;2023-02-15T12:55:25;34.58;;;19.52;;
62149;SDS011;48134;53.586;10.610;2023-02-15T12:58:05;32.63;;;18.33;;
62149;SDS011;48134;53.586;10.610;2023-02-15T13:00:38;32.60;;;18.50;;
62149;SDS011;48134;53.586;10.610;2023-02-15T13:03:16;34.47;;;18.27;;
62149;SDS011;48134;53.586;10.610;2023-02-15T13:05:50;40.25;;;18.60;;
62149;SDS011;48134;53.586;10.610;2023-02-15T13:08:20;40.78;;;18.33;;
62149;SDS011;48134;53.586;10.610;2023-02-15T13:10:54;34.65;;;17.75;;
62149;SDS011;48134;53.586;10.610;2023-02-15T13:13:29;37.92;;;19.05;;
62149;SDS011;48134;53.586;10.610;2023-02-15T13:16:04;40.33;;;19.38;;
62149;SDS011;48134;53.586;10.610;2023-02-15T13:18:34;43.17;;;20.02;;
62149;SDS011;48134;53.586;10.610;2023-02-15T13:21:04;48.63;;;20.48;;
62149;SDS011;48134;53.586;10.610;2023-02-15T13:23:39;38.42;;;19.60;;
62149;SDS011;48134;53.586;10.610;2023-02-15T13:26:14;55.85;;;20.48;;
62149;SDS011;48134;53.586;10.610;2023-02-15T13:28:49;50.47;;;19.98;;
62149;SDS011;48134;53.586;10.610;2023-02-15T13:31:19;47.88;;;19.83;;
62149;SDS011;48134;53.586;10.610;2023-02-15T13:33:48;68.53;;;20.42;;
62149;SDS011;48134;53.586;10.610;2023-02-15T13:36:19;107.82;;;22.17;;
62149;SDS011;48134;53.586;10.610;2023-02-15T13:38:55;87.32;;;20.27;;
62149;SDS011;48134;53.586;10.610;2023-02-15T13:41:32;47.92;;;20.67;;
62149;SDS011;48134;53.586;10.610;2023-02-15T13:44:03;56.72;;;21.30;;
62149;SDS011;48134;53.586;10.610;2023-02-15T13:46:40;48.93;;;21.33;;
62149;SDS011;48134;53.586;10.610;2023-02-15T13:49:14;38.60;;;20.00;;
62149;SDS011;48134;53.586;10.610;2023-02-15T13:51:53;39.88;;;20.67;;
62149;SDS011;48134;53.586;10.610;2023-02-15T13:54:36;46.03;;;21.40;;
62149;SDS011;48134;53.586;10.610;2023-02-15T13:57:21;41.55;;;21.65;;
62149;SDS011;48134;53.586;10.610;2023-02-15T14:00:01;41.17;;;20.42;;
62149;SDS011;48134;53.586;10.610;2023-02-15T14:05:35;55.53;;;21.52;;
62149;SDS011;48134;53.586;10.610;2023-02-15T14:08:11;51.88;;;22.90;;
62149;SDS011;48134;53.586;10.610;2023-02-15T14:10:45;74.13;;;23.10;;
62149;SDS011;48134;53.586;10.610;2023-02-15T14:16:10;53.47;;;22.35;;
62149;SDS011;48134;53.586;10.610;2023-02-15T14:18:41;69.13;;;22.58;;
62149;SDS011;48134;53.586;10.610;2023-02-15T14:21:19;56.78;;;23.00;;
62149;SDS011;48134;53.586;10.610;2023-02-15T14:23:57;73.35;;;23.50;;
62149;SDS011;48134;53.586;10.610;2023-02-15T14:26:36;117.55;;;22.92;;
62149;SDS011;48134;53.586;10.610;2023-02-15T14:29:13;61.00;;;23.98;;
62149;SDS011;48134;53.586;10.610;2023-02-15T14:31:50;66.37;;;22.97;;
62149;SDS011;48134;53.586;10.610;2023-02-15T14:34:25;76.15;;;23.10;;
62149;SDS011;48134;53.586;10.610;2023-02-15T14:36:56;76.75;;;22.48;;
62149;SDS011;48134;53.586;10.610;2023-02-15T14:39:26;118.38;;;24.00;;
62149;SDS011;48134;53.586;10.610;2023-02-15T14:42:20;77.00;;;23.80;;
62149;SDS011;48134;53.586;10.610;2023-02-15T14:44:48;74.43;;;26.45;;
62149;SDS011;48134;53.586;10.610;2023-02-15T14:47:21;59.87;;;24.30;;
62149;SDS011;48134;53.586;10.610;2023-02-15T14:49:49;75.57;;;24.45;;
62149;SDS011;48134;53.586;10.610;2023-02-15T14:52:17;55.25;;;23.77;;
62149;SDS011;48134;53.586;10.610;2023-02-15T14:55:00;68.93;;;24.15;;